Time;durP1;ratioP1;P1;durP2;ratioP2;P2;SDS_P1;SDS_P2;PMS_P1;PMS_P2;Temp;Humidity;BMP_temperature;BMP_pressure;BME280_temperature;BME280_humidity;BME280_pressure;Samples;Min_cycle;Max_cycle;Signal;HPM_P1;HPM_P2
2022/01/27 00:05:30;;;;;;;3.13;2.90;;;;;;;;;;4963044;28;20046;-44
2022/01/27 00:13:09;;;;;;;3.50;3.20;;;;;;;;;;4976715;28;20047;-44
2022/01/27 00:15:35;;;;;;;3.90;3.17;;;;;;;;;;4971879;28;20104;-45
2022/01/27 00:18:07;;;;;;;3.83;3.53;;;;;;;;;;4975886;28;20081;-46
2022/01/27 00:20:32;;;;;;;4.20;3.88;;;;;;;;;;4985586;28;20034;-45
2022/01/27 00:22:58;;;;;;;4.45;3.17;;;;;;;;;;5002638;28;20522;-44
2022/01/27 00:25:23;;;;;;;3.53;3.22;;;;;;;;;;4996320;28;20031;-45
2022/01/27 00:27:48;;;;;;;4.07;3.65;;;;;;;;;;4999346;28;20091;-46
2022/01/27 00:30:14;;;;;;;3.58;3.28;;;;;;;;;;4992650;28;20041;-45
2022/01/27 00:32:39;;;;;;;3.95;3.53;;;;;;;;;;5000379;28;20118;-44
2022/01/27 00:35:05;;;;;;;3.80;3.40;;;;;;;;;;4993962;28;20415;-44
2022/01/27 00:37:30;;;;;;;3.95;3.65;;;;;;;;;;4998245;28;20395;-44
2022/01/27 00:39:56;;;;;;;3.47;3.25;;;;;;;;;;5001984;28;20042;-44
2022/01/27 00:42:22;;;;;;;2.90;2.70;;;;;;;;;;4998237;28;20560;-44
2022/01/27 00:44:47;;;;;;;3.85;3.45;;;;;;;;;;4996281;28;20027;-44
2022/01/27 00:47:13;;;;;;;4.63;3.45;;;;;;;;;;4994378;28;20057;-44
2022/01/27 00:49:38;;;;;;;4.10;3.00;;;;;;;;;;5002564;28;20231;-45
2022/01/27 00:52:06;;;;;;;3.97;3.28;;;;;;;;;;5006177;28;20049;-46
2022/01/27 00:54:32;;;;;;;2.90;2.60;;;;;;;;;;4992163;28;20054;-44
2022/01/27 00:57:13;;;;;;;2.75;2.55;;;;;;;;;;4996591;28;20034;-44
2022/01/27 01:00:25;;;;;;;2.42;2.25;;;;;;;;;;4996406;28;20107;-44
2022/01/27 01:08:02;;;;;;;2.58;2.38;;;;;;;;;;4985366;28;20054;-43
2022/01/27 01:15:55;;;;;;;2.47;2.28;;;;;;;;;;5000393;28;20060;-44
2022/01/27 01:18:40;;;;;;;2.33;2.08;;;;;;;;;;4990755;28;20037;-44
2022/01/27 01:34:29;;;;;;;3.13;2.38;;;;;;;;;;4999953;28;20607;-45
2022/01/27 01:36:57;;;;;;;3.67;2.75;;;;;;;;;;5003621;28;20469;-49
2022/01/27 01:39:23;;;;;;;3.08;2.28;;;;;;;;;;4998881;28;20108;-44
2022/01/27 01:41:48;;;;;;;2.05;1.95;;;;;;;;;;4997279;28;20050;-46
2022/01/27 01:44:14;;;;;;;2.53;2.33;;;;;;;;;;5005509;28;20045;-46
2022/01/27 01:46:39;;;;;;;2.10;2.00;;;;;;;;;;5000376;28;20034;-44
2022/01/27 01:49:05;;;;;;;2.45;2.05;;;;;;;;;;5002558;28;20083;-44
2022/01/27 01:51:32;;;;;;;2.35;2.15;;;;;;;;;;4999041;28;20453;-44
2022/01/27 01:53:57;;;;;;;2.08;1.88;;;;;;;;;;5003422;28;20034;-46
2022/01/27 01:56:23;;;;;;;1.80;1.70;;;;;;;;;;5011665;28;20558;-46
2022/01/27 01:58:48;;;;;;;1.63;1.52;;;;;;;;;;5012585;28;20718;-45
2022/01/27 02:01:14;;;;;;;1.75;1.65;;;;;;;;;;5006527;28;20772;-44
2022/01/27 02:03:39;;;;;;;1.88;1.77;;;;;;;;;;5000182;28;20037;-45
2022/01/27 02:06:05;;;;;;;2.72;1.75;;;;;;;;;;5003280;28;20041;-45
2022/01/27 02:08:43;;;;;;;3.10;1.40;;;;;;;;;;4999138;28;20033;-45
2022/01/27 02:19:23;;;;;;;2.05;1.20;;;;;;;;;;4999137;28;20088;-45
2022/01/27 02:21:56;;;;;;;2.90;1.40;;;;;;;;;;5012745;28;20034;-44
2022/01/27 02:24:22;;;;;;;1.40;1.30;;;;;;;;;;4998380;28;20125;-45
2022/01/27 02:26:49;;;;;;;2.17;1.25;;;;;;;;;;5007024;28;20033;-45
2022/01/27 02:29:15;;;;;;;1.23;1.13;;;;;;;;;;5005601;28;20037;-44
2022/01/27 02:31:40;;;;;;;1.70;1.60;;;;;;;;;;5004914;28;20048;-44
2022/01/27 02:34:06;;;;;;;1.88;1.50;;;;;;;;;;5000585;28;20125;-45
2022/01/27 02:36:33;;;;;;;2.83;1.63;;;;;;;;;;4990380;28;20113;-46
2022/01/27 02:38:58;;;;;;;1.88;1.45;;;;;;;;;;5002009;28;20045;-45
2022/01/27 02:41:25;;;;;;;1.42;1.00;;;;;;;;;;4994886;28;20043;-44
2022/01/27 02:43:51;;;;;;;1.48;1.38;;;;;;;;;;4993230;28;20054;-47
2022/01/27 02:46:19;;;;;;;3.22;1.52;;;;;;;;;;5004885;28;20111;-44
2022/01/27 02:48:45;;;;;;;1.33;1.23;;;;;;;;;;4996555;28;20030;-45
2022/01/27 02:51:10;;;;;;;2.35;1.65;;;;;;;;;;5001625;28;20057;-44
2022/01/27 02:53:35;;;;;;;1.17;1.08;;;;;;;;;;4995530;28;20176;-44
2022/01/27 02:56:01;;;;;;;1.60;1.33;;;;;;;;;;4997621;28;20042;-46
2022/01/27 02:58:26;;;;;;;1.70;1.40;;;;;;;;;;5003241;28;20395;-43
2022/01/27 03:00:51;;;;;;;2.47;1.20;;;;;;;;;;4992243;28;20054;-46
2022/01/27 03:03:16;;;;;;;1.50;1.30;;;;;;;;;;5002471;28;20361;-44
2022/01/27 03:05:42;;;;;;;2.13;1.25;;;;;;;;;;4996960;28;20430;-48
2022/01/27 03:08:07;;;;;;;1.45;1.17;;;;;;;;;;5007530;28;20045;-44
2022/01/27 03:10:39;;;;;;;2.83;1.35;;;;;;;;;;5005969;28;20037;-45
2022/01/27 03:13:04;;;;;;;4.38;1.40;;;;;;;;;;4996959;28;20038;-44
2022/01/27 03:15:30;;;;;;;1.92;1.55;;;;;;;;;;5001558;28;20034;-46
2022/01/27 03:17:55;;;;;;;1.52;1.23;;;;;;;;;;5003730;28;20077;-45
2022/01/27 03:20:20;;;;;;;2.67;1.27;;;;;;;;;;5009395;28;20079;-44
2022/01/27 03:22:46;;;;;;;2.17;1.75;;;;;;;;;;5001969;28;20041;-44
2022/01/27 03:25:11;;;;;;;1.30;1.10;;;;;;;;;;5001719;28;20116;-44
2022/01/27 03:27:43;;;;;;;1.33;1.15;;;;;;;;;;4999201;28;20065;-44
2022/01/27 03:30:09;;;;;;;1.40;1.10;;;;;;;;;;4994293;28;20042;-44
2022/01/27 03:32:34;;;;;;;0.95;0.93;;;;;;;;;;4997751;28;20037;-46
2022/01/27 03:35:00;;;;;;;1.98;1.02;;;;;;;;;;4996842;28;20071;-44
2022/01/27 03:37:25;;;;;;;1.77;1.20;;;;;;;;;;5002773;28;20064;-46
2022/01/27 03:39:50;;;;;;;1.95;0.90;;;;;;;;;;4996277;28;20040;-44
2022/01/27 03:42:15;;;;;;;1.80;1.20;;;;;;;;;;5008554;28;20514;-45
2022/01/27 03:44:40;;;;;;;1.50;1.30;;;;;;;;;;5002693;28;20061;-47
2022/01/27 03:47:06;;;;;;;1.60;1.08;;;;;;;;;;4995718;28;20068;-45
2022/01/27 03:49:31;;;;;;;1.33;0.98;;;;;;;;;;5006478;28;20034;-45
2022/01/27 03:52:00;;;;;;;1.02;0.93;;;;;;;;;;4998687;28;20033;-44
2022/01/27 03:54:26;;;;;;;1.58;1.48;;;;;;;;;;5004132;28;20125;-45
2022/01/27 03:56:51;;;;;;;3.80;1.10;;;;;;;;;;5004912;28;20117;-44
2022/01/27 03:59:16;;;;;;;1.10;1.00;;;;;;;;;;4997191;28;20030;-44
2022/01/27 04:01:41;;;;;;;2.08;1.00;;;;;;;;;;5004266;28;20057;-46
2022/01/27 04:04:07;;;;;;;2.60;0.98;;;;;;;;;;4994890;28;20116;-46
2022/01/27 04:06:38;;;;;;;1.13;0.93;;;;;;;;;;5005505;28;20034;-44
2022/01/27 04:09:04;;;;;;;3.75;1.45;;;;;;;;;;5001606;28;20050;-44
2022/01/27 04:11:30;;;;;;;1.38;0.85;;;;;;;;;;4998950;28;20566;-46
2022/01/27 04:13:55;;;;;;;1.73;0.90;;;;;;;;;;4998353;28;20137;-44
2022/01/27 04:16:20;;;;;;;1.58;1.42;;;;;;;;;;4997696;28;20113;-44
2022/01/27 04:18:46;;;;;;;3.05;1.25;;;;;;;;;;5006100;28;20033;-45
2022/01/27 04:21:11;;;;;;;1.45;1.02;;;;;;;;;;5002156;28;20053;-46
2022/01/27 04:23:37;;;;;;;1.92;1.30;;;;;;;;;;4999787;28;20723;-46
2022/01/27 04:26:04;;;;;;;1.55;0.95;;;;;;;;;;4997219;28;20092;-44
2022/01/27 04:28:32;;;;;;;1.05;0.80;;;;;;;;;;5009949;28;20153;-49
2022/01/27 04:30:59;;;;;;;2.13;1.15;;;;;;;;;;5008731;28;20048;-44
2022/01/27 04:33:28;;;;;;;0.90;0.77;;;;;;;;;;4998232;28;20042;-45
2022/01/27 04:35:57;;;;;;;1.10;0.80;;;;;;;;;;5007211;28;20050;-44
2022/01/27 04:38:38;;;;;;;2.88;1.80;;;;;;;;;;5008936;28;20712;-44
2022/01/27 04:41:12;;;;;;;4.18;1.33;;;;;;;;;;5000771;28;20087;-45
2022/01/27 04:43:48;;;;;;;2.55;1.13;;;;;;;;;;5008861;28;20044;-44
2022/01/27 04:46:36;;;;;;;1.20;1.10;;;;;;;;;;4997007;28;20037;-45
2022/01/27 04:49:04;;;;;;;1.95;0.98;;;;;;;;;;4999928;28;20057;-45
2022/01/27 04:51:30;;;;;;;0.90;0.90;;;;;;;;;;4994414;28;20427;-44
2022/01/27 04:54:05;;;;;;;2.72;1.10;;;;;;;;;;4995370;28;20049;-46
2022/01/27 04:56:33;;;;;;;1.88;1.00;;;;;;;;;;4994310;28;20042;-44
2022/01/27 04:59:03;;;;;;;0.93;0.88;;;;;;;;;;4998969;28;20042;-44
2022/01/27 05:01:34;;;;;;;1.48;1.38;;;;;;;;;;5000610;28;20540;-44
2022/01/27 05:04:04;;;;;;;1.95;0.85;;;;;;;;;;5007033;28;20030;-44
2022/01/27 05:06:29;;;;;;;;;;;;;;;;;;5005500;28;20037;-45
2022/01/27 05:08:55;;;;;;;0.63;0.63;;;;;;;;;;5008101;28;19917;-44
2022/01/27 05:11:28;;;;;;;1.40;1.00;;;;;;;;;;5002641;28;20114;-45
2022/01/27 05:16:19;;;;;;;4.00;1.25;;;;;;;;;;5002152;28;20045;-45
2022/01/27 05:18:44;;;;;;;1.55;1.40;;;;;;;;;;5009363;28;20072;-46
2022/01/27 05:21:09;;;;;;;1.50;1.23;;;;;;;;;;5000717;28;20050;-45
2022/01/27 05:23:35;;;;;;;1.75;1.10;;;;;;;;;;4999381;28;20565;-44
2022/01/27 05:26:00;;;;;;;1.13;1.08;;;;;;;;;;5009730;28;20055;-45
2022/01/27 05:28:25;;;;;;;0.73;0.70;;;;;;;;;;5010517;28;20094;-44
2022/01/27 05:30:51;;;;;;;1.85;0.90;;;;;;;;;;5002641;28;20045;-46
2022/01/27 05:33:16;;;;;;;2.70;1.23;;;;;;;;;;5010522;28;20129;-45
2022/01/27 05:35:45;;;;;;;2.42;0.88;;;;;;;;;;5008200;28;20394;-46
2022/01/27 05:38:11;;;;;;;1.17;1.08;;;;;;;;;;5005338;28;20069;-44
2022/01/27 05:40:36;;;;;;;2.53;1.08;;;;;;;;;;5002658;28;20061;-44
2022/01/27 05:43:02;;;;;;;2.08;0.82;;;;;;;;;;5004992;28;20144;-44
2022/01/27 05:45:27;;;;;;;1.33;0.90;;;;;;;;;;5007945;28;20045;-45
2022/01/27 05:47:52;;;;;;;1.23;0.90;;;;;;;;;;5009487;28;20851;-45
2022/01/27 05:50:17;;;;;;;1.38;0.80;;;;;;;;;;4994825;28;20057;-44
2022/01/27 05:52:43;;;;;;;1.17;0.70;;;;;;;;;;5011449;28;20868;-44
2022/01/27 05:55:08;;;;;;;1.05;0.70;;;;;;;;;;5005729;28;20045;-45
2022/01/27 05:57:33;;;;;;;1.02;0.90;;;;;;;;;;5004477;28;20034;-45
2022/01/27 05:59:59;;;;;;;1.00;0.90;;;;;;;;;;5001986;28;20047;-45
2022/01/27 06:02:24;;;;;;;2.08;1.20;;;;;;;;;;4999536;28;20112;-44
2022/01/27 06:04:49;;;;;;;1.35;1.08;;;;;;;;;;4997737;28;20089;-45
2022/01/27 06:07:15;;;;;;;1.20;0.90;;;;;;;;;;5008089;28;20457;-45
2022/01/27 06:09:40;;;;;;;2.65;1.00;;;;;;;;;;5004391;28;20058;-44
2022/01/27 06:12:06;;;;;;;2.33;1.42;;;;;;;;;;5006775;28;20026;-45
2022/01/27 06:14:31;;;;;;;3.30;1.20;;;;;;;;;;5000027;28;20112;-46
2022/01/27 06:16:56;;;;;;;1.65;1.13;;;;;;;;;;5008435;28;20764;-44
2022/01/27 06:19:26;;;;;;;2.40;1.25;;;;;;;;;;5008518;28;20072;-44
2022/01/27 06:21:51;;;;;;;1.30;1.13;;;;;;;;;;5002349;28;20050;-44
2022/01/27 06:24:16;;;;;;;1.85;1.30;;;;;;;;;;5007726;28;20039;-44
2022/01/27 06:26:41;;;;;;;1.50;1.35;;;;;;;;;;5006318;28;20061;-47
2022/01/27 06:29:07;;;;;;;3.55;1.23;;;;;;;;;;5006336;28;20078;-45
2022/01/27 06:31:32;;;;;;;1.60;1.27;;;;;;;;;;5009752;28;20121;-48
2022/01/27 06:33:57;;;;;;;1.60;1.50;;;;;;;;;;5007113;28;20124;-48
2022/01/27 06:36:22;;;;;;;1.50;1.30;;;;;;;;;;4998767;28;20384;-48
2022/01/27 06:38:48;;;;;;;1.50;1.13;;;;;;;;;;5008455;28;20037;-47
2022/01/27 06:41:13;;;;;;;2.08;1.25;;;;;;;;;;4999557;28;20499;-46
2022/01/27 06:43:38;;;;;;;1.65;1.50;;;;;;;;;;4997901;28;20040;-45
2022/01/27 06:46:04;;;;;;;3.70;1.80;;;;;;;;;;5001569;28;20502;-46
2022/01/27 06:48:29;;;;;;;2.42;1.27;;;;;;;;;;5010450;28;20096;-44
2022/01/27 06:50:55;;;;;;;1.73;1.40;;;;;;;;;;5004148;28;20040;-44
2022/01/27 06:53:21;;;;;;;4.55;1.40;;;;;;;;;;5011460;28;20066;-46
2022/01/27 06:55:46;;;;;;;1.35;1.20;;;;;;;;;;4992033;28;20080;-44
2022/01/27 06:58:12;;;;;;;1.75;1.65;;;;;;;;;;5004346;28;20422;-45
2022/01/27 07:00:37;;;;;;;1.92;1.52;;;;;;;;;;4996086;28;20504;-45
2022/01/27 07:03:03;;;;;;;4.05;2.03;;;;;;;;;;5002861;28;20085;-46
2022/01/27 07:05:31;;;;;;;1.75;1.65;;;;;;;;;;5000697;28;20030;-45
2022/01/27 07:07:56;;;;;;;2.08;1.70;;;;;;;;;;5000597;28;20038;-45
2022/01/27 07:10:21;;;;;;;3.38;1.58;;;;;;;;;;5009835;28;20030;-44
2022/01/27 07:12:47;;;;;;;2.95;1.80;;;;;;;;;;5006216;28;20042;-45
2022/01/27 07:15:12;;;;;;;2.03;1.60;;;;;;;;;;4998269;28;20063;-44
2022/01/27 07:17:38;;;;;;;4.53;1.85;;;;;;;;;;5005972;28;20041;-45
2022/01/27 07:20:03;;;;;;;2.38;1.98;;;;;;;;;;4994775;28;20522;-46
2022/01/27 07:22:30;;;;;;;4.10;1.90;;;;;;;;;;4997739;28;20068;-44
2022/01/27 07:24:56;;;;;;;2.05;1.40;;;;;;;;;;5009263;28;20121;-44
2022/01/27 07:27:21;;;;;;;2.35;1.30;;;;;;;;;;5004133;28;20445;-46
2022/01/27 07:29:46;;;;;;;1.67;1.35;;;;;;;;;;5001848;28;20458;-45
2022/01/27 07:32:11;;;;;;;2.97;1.98;;;;;;;;;;4998690;28;20049;-44
2022/01/27 07:34:36;;;;;;;1.85;1.27;;;;;;;;;;4994810;28;20445;-44
2022/01/27 07:37:03;;;;;;;1.48;0.90;;;;;;;;;;4995577;28;20561;-44
2022/01/27 07:39:28;;;;;;;1.60;1.27;;;;;;;;;;4999398;28;20714;-44
2022/01/27 07:41:56;;;;;;;4.20;1.77;;;;;;;;;;5013296;28;20145;-44
2022/01/27 07:44:22;;;;;;;1.80;1.17;;;;;;;;;;4999652;28;20076;-44
2022/01/27 07:46:47;;;;;;;3.33;1.63;;;;;;;;;;5002663;28;20058;-47
2022/01/27 07:49:12;;;;;;;1.35;1.08;;;;;;;;;;4996270;28;20128;-45
2022/01/27 07:51:37;;;;;;;1.88;1.35;;;;;;;;;;5002141;28;20133;-44
2022/01/27 07:54:03;;;;;;;1.50;0.93;;;;;;;;;;4999208;28;20104;-44
2022/01/27 07:56:28;;;;;;;1.67;0.95;;;;;;;;;;5005768;28;20037;-45
2022/01/27 07:58:53;;;;;;;1.35;1.15;;;;;;;;;;4990232;28;20045;-45
2022/01/27 08:01:18;;;;;;;1.92;1.73;;;;;;;;;;5000790;28;20398;-45
2022/01/27 08:03:44;;;;;;;2.72;1.58;;;;;;;;;;4992283;28;20162;-43
2022/01/27 08:06:09;;;;;;;1.98;1.40;;;;;;;;;;5011951;28;20041;-45
2022/01/27 08:08:34;;;;;;;2.65;1.23;;;;;;;;;;5016368;28;20854;-47
2022/01/27 08:11:00;;;;;;;2.55;1.40;;;;;;;;;;4998659;28;20046;-46
2022/01/27 08:13:25;;;;;;;1.75;1.45;;;;;;;;;;4993273;28;20092;-45
2022/01/27 08:15:51;;;;;;;1.58;1.48;;;;;;;;;;5007084;28;20039;-46
2022/01/27 08:18:16;;;;;;;1.27;1.10;;;;;;;;;;5011145;28;20026;-46
2022/01/27 08:20:41;;;;;;;1.83;1.33;;;;;;;;;;5007711;28;20096;-45
2022/01/27 08:23:07;;;;;;;2.58;1.73;;;;;;;;;;5000436;28;20130;-47
2022/01/27 08:25:33;;;;;;;1.85;1.75;;;;;;;;;;4996532;28;20040;-47
2022/01/27 08:28:01;;;;;;;1.85;1.67;;;;;;;;;;5002757;28;20046;-46
2022/01/27 08:30:29;;;;;;;2.28;2.05;;;;;;;;;;5010975;28;20045;-49
2022/01/27 08:33:04;;;;;;;2.67;1.75;;;;;;;;;;5009756;28;20037;-46
2022/01/27 08:35:29;;;;;;;1.92;1.40;;;;;;;;;;4999231;28;20222;-45
2022/01/27 08:37:54;;;;;;;2.47;1.98;;;;;;;;;;5007093;28;20042;-46
2022/01/27 08:40:20;;;;;;;2.20;2.10;;;;;;;;;;4994660;28;20120;-45
2022/01/27 08:42:46;;;;;;;1.60;1.50;;;;;;;;;;5004044;28;20533;-46
2022/01/27 08:45:12;;;;;;;2.85;1.90;;;;;;;;;;4994278;28;20046;-45
2022/01/27 08:47:37;;;;;;;2.00;1.80;;;;;;;;;;4997626;28;20038;-47
2022/01/27 08:50:04;;;;;;;2.72;2.03;;;;;;;;;;4995186;28;20041;-44
2022/01/27 08:52:29;;;;;;;2.53;2.00;;;;;;;;;;4992618;28;20037;-44
2022/01/27 08:54:54;;;;;;;2.40;2.17;;;;;;;;;;4996899;28;20137;-45
2022/01/27 08:57:20;;;;;;;2.85;2.13;;;;;;;;;;5012896;28;20133;-47
2022/01/27 08:59:46;;;;;;;2.65;2.10;;;;;;;;;;4996810;28;20081;-46
2022/01/27 09:02:12;;;;;;;1.98;1.63;;;;;;;;;;4995810;28;20057;-47
2022/01/27 09:04:37;;;;;;;3.65;2.22;;;;;;;;;;5012688;28;20030;-44
2022/01/27 09:07:02;;;;;;;2.00;1.90;;;;;;;;;;5004434;28;20042;-44
2022/01/27 09:09:28;;;;;;;1.50;1.40;;;;;;;;;;4996408;28;20053;-46
2022/01/27 09:11:55;;;;;;;1.73;1.63;;;;;;;;;;5001189;28;20030;-44
2022/01/27 09:14:22;;;;;;;1.70;1.60;;;;;;;;;;5003883;28;20108;-44
2022/01/27 09:16:47;;;;;;;1.65;1.55;;;;;;;;;;5006118;28;20034;-46
2022/01/27 09:19:12;;;;;;;1.02;0.93;;;;;;;;;;4304713;28;10000714;-45
2022/01/27 09:21:46;;;;;;;1.55;1.45;;;;;;;;;;4994479;28;20826;-44
2022/01/27 09:24:16;;;;;;;1.35;1.25;;;;;;;;;;4984894;28;20053;-45
2022/01/27 09:26:52;;;;;;;2.08;1.15;;;;;;;;;;4999868;28;20041;-44
2022/01/27 09:29:18;;;;;;;1.40;1.30;;;;;;;;;;4648736;28;10000131;-44
2022/01/27 09:31:43;;;;;;;1.30;1.20;;;;;;;;;;4993111;28;20029;-45
2022/01/27 09:34:09;;;;;;;1.88;1.60;;;;;;;;;;4996714;28;20049;-46
2022/01/27 09:36:34;;;;;;;1.40;1.30;;;;;;;;;;4997930;28;20065;-45
2022/01/27 09:38:59;;;;;;;1.20;1.10;;;;;;;;;;4999868;28;20042;-46
2022/01/27 09:41:26;;;;;;;1.27;1.17;;;;;;;;;;5001600;28;20043;-48
2022/01/27 09:43:53;;;;;;;1.48;1.38;;;;;;;;;;4985067;28;20159;-44
2022/01/27 09:46:20;;;;;;;1.50;1.40;;;;;;;;;;4986846;28;20041;-44
2022/01/27 09:48:48;;;;;;;1.88;1.77;;;;;;;;;;4994837;28;20073;-44
2022/01/27 09:53:46;;;;;;;1.80;1.70;;;;;;;;;;4996440;28;20061;-45
2022/01/27 09:56:12;;;;;;;1.67;1.58;;;;;;;;;;4993029;28;20046;-43
2022/01/27 09:58:37;;;;;;;1.70;1.60;;;;;;;;;;4994122;28;20045;-44
2022/01/27 10:01:04;;;;;;;1.90;1.70;;;;;;;;;;5000023;28;20046;-47
2022/01/27 10:03:30;;;;;;;3.17;1.67;;;;;;;;;;5005422;28;20088;-44
2022/01/27 10:06:17;;;;;;;2.70;2.20;;;;;;;;;;4999781;28;20038;-48
2022/01/27 10:08:43;;;;;;;2.17;1.77;;;;;;;;;;4997252;28;20038;-44
2022/01/27 10:11:18;;;;;;;2.10;1.95;;;;;;;;;;4997355;28;20040;-44
2022/01/27 10:13:45;;;;;;;2.55;2.35;;;;;;;;;;5010344;28;20061;-46
2022/01/27 10:16:29;;;;;;;2.22;2.13;;;;;;;;;;4998338;28;20113;-43
2022/01/27 10:19:07;;;;;;;2.47;2.28;;;;;;;;;;5003507;28;20041;-44
2022/01/27 10:21:33;;;;;;;1.60;1.50;;;;;;;;;;4985142;28;20053;-45
2022/01/27 10:24:13;;;;;;;2.97;1.77;;;;;;;;;;5015475;28;20371;-48
2022/01/27 10:26:43;;;;;;;2.25;2.05;;;;;;;;;;5000426;28;20033;-45
2022/01/27 10:29:14;;;;;;;2.13;2.03;;;;;;;;;;5002469;28;20057;-44
2022/01/27 10:31:41;;;;;;;1.90;1.80;;;;;;;;;;4996139;28;20117;-45
2022/01/27 10:34:07;;;;;;;2.10;2.00;;;;;;;;;;4993203;28;20034;-44
2022/01/27 10:36:39;;;;;;;2.08;1.98;;;;;;;;;;4992559;28;20673;-45
2022/01/27 10:39:05;;;;;;;2.03;1.92;;;;;;;;;;5002949;28;20072;-46
2022/01/27 10:41:32;;;;;;;2.17;1.92;;;;;;;;;;4990320;28;20565;-46
2022/01/27 10:44:04;;;;;;;2.10;2.00;;;;;;;;;;5007831;28;20120;-45
2022/01/27 10:46:30;;;;;;;1.70;1.60;;;;;;;;;;4995692;28;20038;-45
2022/01/27 10:49:04;;;;;;;2.05;1.95;;;;;;;;;;5003521;28;20038;-46
2022/01/27 10:51:34;;;;;;;2.13;2.03;;;;;;;;;;4995490;28;20073;-44
2022/01/27 10:56:27;;;;;;;2.22;2.13;;;;;;;;;;4997263;28;20506;-44
2022/01/27 10:58:53;;;;;;;2.25;2.13;;;;;;;;;;5001504;28;20633;-45
2022/01/27 11:01:22;;;;;;;2.35;2.20;;;;;;;;;;5001711;28;20045;-44
2022/01/27 11:03:51;;;;;;;1.92;1.83;;;;;;;;;;4985055;28;20468;-45
2022/01/27 11:06:17;;;;;;;2.63;2.43;;;;;;;;;;4993094;28;20696;-45
2022/01/27 11:08:43;;;;;;;2.03;1.92;;;;;;;;;;5010176;28;20297;-45
2022/01/27 11:11:09;;;;;;;2.05;1.95;;;;;;;;;;5001618;28;20089;-45
2022/01/27 11:13:35;;;;;;;2.10;2.00;;;;;;;;;;4998171;28;20572;-47
2022/01/27 11:16:03;;;;;;;2.33;2.22;;;;;;;;;;5003420;28;20045;-46
2022/01/27 11:18:29;;;;;;;2.90;2.70;;;;;;;;;;4999708;28;20124;-46
2022/01/27 11:26:06;;;;;;;2.10;2.00;;;;;;;;;;5001023;28;20117;-47
2022/01/27 11:28:32;;;;;;;1.88;1.77;;;;;;;;;;5008298;28;20025;-45
2022/01/27 11:31:16;;;;;;;2.42;2.22;;;;;;;;;;4319163;28;10000597;-49
2022/01/27 11:33:43;;;;;;;3.17;2.38;;;;;;;;;;5000937;28;20130;-48
2022/01/27 11:36:09;;;;;;;2.72;2.55;;;;;;;;;;5004089;28;20088;-44
2022/01/27 11:38:34;;;;;;;2.40;2.30;;;;;;;;;;4989964;28;20488;-45
2022/01/27 11:40:59;;;;;;;2.78;2.58;;;;;;;;;;4994096;28;20069;-44
2022/01/27 11:43:33;;;;;;;3.40;2.75;;;;;;;;;;4995821;28;20038;-45
2022/01/27 11:46:13;;;;;;;2.70;2.50;;;;;;;;;;5000189;28;20141;-44
2022/01/27 11:48:38;;;;;;;2.45;2.28;;;;;;;;;;4987801;28;20113;-44
2022/01/27 11:51:03;;;;;;;2.80;2.60;;;;;;;;;;5003325;28;20244;-45
2022/01/27 11:53:29;;;;;;;2.42;2.22;;;;;;;;;;4996128;28;20042;-45
2022/01/27 11:55:54;;;;;;;2.47;2.33;;;;;;;;;;4999103;28;20049;-44
2022/01/27 11:58:23;;;;;;;2.25;2.15;;;;;;;;;;5005946;28;20042;-45
2022/01/27 12:01:07;;;;;;;2.20;2.08;;;;;;;;;;5011002;28;20075;-44
2022/01/27 12:03:33;;;;;;;2.10;2.00;;;;;;;;;;4998990;28;20429;-44
2022/01/27 12:06:17;;;;;;;2.00;1.90;;;;;;;;;;5004667;28;20176;-45
2022/01/27 12:08:43;;;;;;;2.10;2.00;;;;;;;;;;4996418;28;20128;-49
2022/01/27 12:11:10;;;;;;;2.03;1.92;;;;;;;;;;4999985;28;20142;-44
2022/01/27 12:13:43;;;;;;;1.60;1.55;;;;;;;;;;4995018;28;20029;-45
2022/01/27 12:18:55;;;;;;;1.70;1.60;;;;;;;;;;5000500;28;20654;-44
2022/01/27 12:21:40;;;;;;;1.92;1.83;;;;;;;;;;4997100;28;20042;-46
2022/01/27 12:24:16;;;;;;;2.10;2.00;;;;;;;;;;4995020;28;20042;-45
2022/01/27 12:26:49;;;;;;;2.13;2.03;;;;;;;;;;4996826;28;20041;-44
2022/01/27 12:29:22;;;;;;;2.05;1.95;;;;;;;;;;4994023;28;20041;-46
2022/01/27 12:31:48;;;;;;;1.95;1.85;;;;;;;;;;5001091;28;20037;-45
2022/01/27 12:34:14;;;;;;;1.95;1.85;;;;;;;;;;5002622;28;20787;-44
2022/01/27 12:36:51;;;;;;;2.65;1.85;;;;;;;;;;4997222;28;20113;-44
2022/01/27 12:39:22;;;;;;;3.15;2.95;;;;;;;;;;4995237;28;20565;-43
2022/01/27 12:41:49;;;;;;;1.88;1.77;;;;;;;;;;4998231;28;20045;-46
2022/01/27 12:44:14;;;;;;;2.05;1.95;;;;;;;;;;4999246;28;20123;-49
2022/01/27 12:46:59;;;;;;;2.25;2.05;;;;;;;;;;5002578;28;20124;-44
2022/01/27 12:49:43;;;;;;;2.53;2.33;;;;;;;;;;5003800;28;20084;-44
2022/01/27 12:52:11;;;;;;;2.55;2.45;;;;;;;;;;4987560;28;20041;-44
2022/01/27 12:54:37;;;;;;;1.92;1.83;;;;;;;;;;4985990;28;20122;-45
2022/01/27 12:57:02;;;;;;;2.55;2.35;;;;;;;;;;4999818;28;20778;-46
2022/01/27 12:59:35;;;;;;;1.92;1.25;;;;;;;;;;4993642;28;20034;-44
2022/01/27 13:02:01;;;;;;;1.77;1.55;;;;;;;;;;5004530;28;20037;-44
2022/01/27 13:04:27;;;;;;;1.23;1.13;;;;;;;;;;5003778;28;20066;-45
2022/01/27 13:06:56;;;;;;;1.23;0.93;;;;;;;;;;4988183;28;20109;-44
2022/01/27 13:09:21;;;;;;;1.77;1.00;;;;;;;;;;4988715;28;20621;-45
2022/01/27 13:11:49;;;;;;;1.08;1.08;;;;;;;;;;4988312;28;20048;-48
2022/01/27 13:14:15;;;;;;;0.52;0.52;;;;;;;;;;4990657;28;20800;-45
2022/01/27 13:16:48;;;;;;;0.68;0.68;;;;;;;;;;4997830;28;20049;-46
2022/01/27 13:19:23;;;;;;;0.68;0.68;;;;;;;;;;4996962;28;20069;-44
2022/01/27 13:21:58;;;;;;;0.90;0.73;;;;;;;;;;4988253;28;20076;-44
2022/01/27 13:24:23;;;;;;;0.38;0.38;;;;;;;;;;5003456;28;20045;-44
2022/01/27 13:26:50;;;;;;;0.75;0.57;;;;;;;;;;5006320;28;20033;-44
2022/01/27 13:29:18;;;;;;;0.57;0.32;;;;;;;;;;4995566;28;20470;-44
2022/01/27 13:31:44;;;;;;;0.30;0.30;;;;;;;;;;4308078;28;10000688;-47
2022/01/27 13:34:09;;;;;;;1.40;0.40;;;;;;;;;;5003448;28;20509;-46
2022/01/27 13:36:36;;;;;;;0.30;0.30;;;;;;;;;;5011771;28;20025;-46
2022/01/27 13:39:36;;;;;;;0.47;0.47;;;;;;;;;;5004719;28;20780;-45
2022/01/27 13:42:08;;;;;;;0.35;0.30;;;;;;;;;;5001752;28;20833;-45
2022/01/27 13:44:33;;;;;;;0.30;0.30;;;;;;;;;;5010441;28;20064;-48
2022/01/27 13:47:03;;;;;;;0.30;0.30;;;;;;;;;;4998372;28;20054;-45
2022/01/27 13:49:31;;;;;;;0.28;0.28;;;;;;;;;;5004484;28;20916;-44
2022/01/27 13:51:57;;;;;;;0.13;0.13;;;;;;;;;;4991425;28;20110;-44
2022/01/27 13:54:31;;;;;;;0.22;0.13;;;;;;;;;;5001999;28;20439;-45
2022/01/27 13:57:02;;;;;;;0.10;0.10;;;;;;;;;;4994953;28;20030;-45
2022/01/27 13:59:40;;;;;;;0.13;0.10;;;;;;;;;;4652834;28;10000475;-46
2022/01/27 14:02:34;;;;;;;0.40;0.20;;;;;;;;;;5009368;28;20679;-44
2022/01/27 14:05:01;;;;;;;0.45;0.20;;;;;;;;;;4978986;28;20038;-44
2022/01/27 14:07:30;;;;;;;0.47;0.20;;;;;;;;;;4993740;28;20065;-44
2022/01/27 14:10:05;;;;;;;0.30;0.20;;;;;;;;;;5007584;28;20096;-44
2022/01/27 14:12:43;;;;;;;0.30;0.30;;;;;;;;;;5003378;28;20057;-44
2022/01/27 14:15:08;;;;;;;0.43;0.30;;;;;;;;;;5006434;28;20080;-45
2022/01/27 14:17:34;;;;;;;0.40;0.30;;;;;;;;;;4989830;28;20584;-45
2022/01/27 14:19:59;;;;;;;1.38;0.20;;;;;;;;;;5002004;28;20038;-44
2022/01/27 14:22:29;;;;;;;0.68;0.30;;;;;;;;;;4988568;28;20049;-44
2022/01/27 14:25:03;;;;;;;0.77;0.45;;;;;;;;;;4993393;28;20038;-47
2022/01/27 14:27:39;;;;;;;2.00;0.45;;;;;;;;;;5003226;28;20042;-45
2022/01/27 14:30:06;;;;;;;0.75;0.40;;;;;;;;;;5002297;28;20051;-45
2022/01/27 14:32:32;;;;;;;0.30;0.30;;;;;;;;;;5005744;28;20041;-43
2022/01/27 14:34:58;;;;;;;1.17;0.63;;;;;;;;;;5001807;28;20126;-44
2022/01/27 14:37:23;;;;;;;0.95;0.40;;;;;;;;;;5004340;28;20482;-44
2022/01/27 14:39:48;;;;;;;1.23;0.43;;;;;;;;;;4999317;28;20038;-44
2022/01/27 14:42:16;;;;;;;0.57;0.43;;;;;;;;;;5001445;28;20506;-45
2022/01/27 14:44:42;;;;;;;0.20;0.20;;;;;;;;;;4996541;28;20116;-44
2022/01/27 14:47:08;;;;;;;0.68;0.63;;;;;;;;;;4999068;28;20125;-45
2022/01/27 14:49:37;;;;;;;0.80;0.60;;;;;;;;;;4996887;28;20105;-45
2022/01/27 14:52:03;;;;;;;0.55;0.40;;;;;;;;;;4988388;28;20031;-44
2022/01/27 14:54:29;;;;;;;0.30;0.30;;;;;;;;;;5002172;28;20526;-44
2022/01/27 14:56:54;;;;;;;0.93;0.40;;;;;;;;;;5008677;28;20045;-47
2022/01/27 14:59:20;;;;;;;1.02;0.40;;;;;;;;;;4996632;28;20440;-44
2022/01/27 15:01:45;;;;;;;2.30;0.73;;;;;;;;;;4993664;28;20102;-44
2022/01/27 15:04:11;;;;;;;0.73;0.60;;;;;;;;;;5011909;28;20038;-44
2022/01/27 15:06:36;;;;;;;1.25;0.80;;;;;;;;;;4995713;28;20057;-45
2022/01/27 15:09:01;;;;;;;2.38;0.65;;;;;;;;;;5001829;28;20527;-44
2022/01/27 15:11:27;;;;;;;1.27;0.60;;;;;;;;;;5005354;28;20042;-44
2022/01/27 15:18:48;;;;;;;1.77;0.80;;;;;;;;;;4998909;28;20754;-44
2022/01/27 15:21:52;;;;;;;2.25;1.70;;;;;;;;;;4989939;28;20041;-45
2022/01/27 15:24:17;;;;;;;0.57;0.50;;;;;;;;;;4982780;28;20045;-45
2022/01/27 15:26:42;;;;;;;0.70;0.57;;;;;;;;;;4998739;28;20117;-46
2022/01/27 15:29:10;;;;;;;1.80;0.65;;;;;;;;;;5003276;28;20046;-46
2022/01/27 15:31:35;;;;;;;1.73;0.75;;;;;;;;;;5006244;28;20033;-46
2022/01/27 15:34:00;;;;;;;3.97;1.08;;;;;;;;;;4997041;28;20553;-48
2022/01/27 15:36:26;;;;;;;2.22;0.88;;;;;;;;;;4986572;28;20590;-45
2022/01/27 15:38:51;;;;;;;1.80;0.90;;;;;;;;;;4994303;28;20546;-44
2022/01/27 15:41:17;;;;;;;1.25;0.63;;;;;;;;;;4998136;28;20054;-44
2022/01/27 15:43:43;;;;;;;2.33;0.65;;;;;;;;;;4996450;28;20022;-47
2022/01/27 15:46:08;;;;;;;3.30;1.23;;;;;;;;;;5004581;28;20038;-45
2022/01/27 15:48:33;;;;;;;1.17;0.60;;;;;;;;;;4990796;28;20041;-46